Hauptseite
METAR-TAF:

METAR-TAF

Flughäfen :

Flughafen Honiara

Honiara, Guadalcanal, Salomonen

Breite: 09-25S, Länge: 160-03E, Höhe: 8 m

Beobachtung

Neuester Wetterbericht von vor 7 Minuten, um 08:00 UTC
Wind 3 kt aus Ost
Temperatur 28°C
Luftfeuchtigkeit 84%
Luftdruck 1008 hPa
Sichtweite 10 km oder mehr
Aufgelockert bewölkt in der Höhe von 1700 ft
trockener Dunst

METAR: AGGH 230800Z 09003KT 9999 HZ SCT017 28/25 Q1008

Zeit: 19:07 (08:07 UTC)

Prognose

Neuester Wetterbericht von vor 2 Stunden und 52 Minuten, um 05:15 UTC
Gültige Prognose vom 23 um 06 UTC bis 26 um 06 UTC
Wind 3 kt aus unterschiedlichen Richtungen
Sichtweite: 1005 m
Leicht bewölkt in der Höhe von 1600 ft
Aufgelockert bewölkt in der Höhe von 10000 ft

TAF: AGGH 230515Z 2306/2606 VRB03KT 9999 FEW016 SCT100 T 29 27 26 25 Q 1005 1007 1007 1005

Wetterbeobachtungen und Prognosen von mehr als 4000 Flughäfen (METAR und TAF Bericht).

Die verfügbaren Stationen werden durch gelbe und rote Markierungen auf der Karte dargestellt.

Führen Sie die Maus auf sie, um den Namen der Station zu sehen.

Darauf klicken, um die Beobachtung von Wetterbeobachtungen und Prognosen zu sehen.

Um die Karte zu ändern : klicken Sie auf den grünen Tasten mit einem schwarzen Kreuz Zum Vergrößern, auf den grünen Button mit einem Gedankenstrich zu verkleinern, oder auf die grünen Pfeile für benachbarte Karten.


METAR-TAF: